createdAt,value
2023-10-02T00:02:08.434Z,13.16
2023-10-02T00:04:43.256Z,13.14
2023-10-02T00:07:24.181Z,13.08
2023-10-02T00:09:56.102Z,13.04
2023-10-02T00:12:29.540Z,13.01
2023-10-02T00:15:14.318Z,13.00
2023-10-02T00:17:49.900Z,12.99
2023-10-02T00:20:36.265Z,12.97
2023-10-02T00:23:08.189Z,12.98
2023-10-02T00:25:52.964Z,13.00
2023-10-02T00:28:32.256Z,12.99
2023-10-02T00:31:06.591Z,12.98
2023-10-02T00:33:38.503Z,12.96
2023-10-02T00:36:10.903Z,12.92
2023-10-02T00:38:42.802Z,12.90
2023-10-02T00:41:15.520Z,12.90
2023-10-02T00:43:47.488Z,12.87
2023-10-02T00:46:25.837Z,12.83
2023-10-02T00:48:59.287Z,12.79
2023-10-02T00:51:31.337Z,12.73
2023-10-02T00:54:23.843Z,12.69
2023-10-02T00:56:57.008Z,12.67
2023-10-02T00:59:30.477Z,12.66
2023-10-02T01:02:06.762Z,12.63
2023-10-02T01:04:38.798Z,12.63
2023-10-02T01:07:13.346Z,12.54
2023-10-02T01:10:05.642Z,12.49
2023-10-02T01:12:44.834Z,12.51
2023-10-02T01:15:17.675Z,12.53
2023-10-02T01:17:50.764Z,12.54
2023-10-02T01:20:34.932Z,12.53
2023-10-02T01:23:17.552Z,12.54
2023-10-02T01:25:51.745Z,12.54
2023-10-02T01:28:26.810Z,12.52
2023-10-02T01:31:02.613Z,12.49
2023-10-02T01:33:34.566Z,12.47
2023-10-02T01:36:07.475Z,12.46
2023-10-02T01:38:42.620Z,12.42
2023-10-02T01:41:15.970Z,12.37
2023-10-02T01:43:50.930Z,12.37
2023-10-02T01:46:24.500Z,12.38
2023-10-02T01:48:56.234Z,12.38
2023-10-02T01:51:28.801Z,12.36
2023-10-02T01:54:04.811Z,12.35
2023-10-02T01:56:36.922Z,12.33
2023-10-02T01:59:13.373Z,12.33
2023-10-02T02:01:54.486Z,12.31
2023-10-02T02:04:29.796Z,12.29
2023-10-02T02:07:03.351Z,12.28
2023-10-02T02:09:39.115Z,12.27
2023-10-02T02:12:12.773Z,12.19
2023-10-02T02:14:53.008Z,12.13
2023-10-02T02:17:29.009Z,12.14
2023-10-02T02:20:12.600Z,12.16
2023-10-02T02:22:46.768Z,12.18
2023-10-02T02:25:29.263Z,12.13
2023-10-02T02:28:01.921Z,12.14
2023-10-02T02:30:41.776Z,12.15
2023-10-02T02:33:14.222Z,12.11
2023-10-02T02:35:46.558Z,12.09
2023-10-02T02:38:18.343Z,12.09
2023-10-02T02:41:07.059Z,12.08
2023-10-02T02:43:42.097Z,12.00
2023-10-02T02:46:18.838Z,11.95
2023-10-02T02:48:57.638Z,11.93
2023-10-02T02:51:30.354Z,11.95
2023-10-02T02:54:06.585Z,11.96
2023-10-02T02:56:40.134Z,11.92
2023-10-02T02:59:11.962Z,11.86
2023-10-02T03:01:42.350Z,11.79
2023-10-02T03:04:14.178Z,11.78
2023-10-02T03:06:44.468Z,11.78
2023-10-02T03:09:25.169Z,11.77
2023-10-02T03:11:56.999Z,11.74
2023-10-02T03:14:30.259Z,11.70
2023-10-02T03:17:23.178Z,11.70
2023-10-02T03:19:55.023Z,11.70
2023-10-02T03:22:29.028Z,11.70
2023-10-02T03:25:21.559Z,11.71
2023-10-02T03:27:56.218Z,11.73
2023-10-02T03:30:41.229Z,11.74
2023-10-02T03:33:21.332Z,11.73
2023-10-02T03:36:09.382Z,11.65
2023-10-02T03:38:43.625Z,11.59
2023-10-02T03:41:15.493Z,11.60
2023-10-02T03:43:48.010Z,11.62
2023-10-02T03:46:25.025Z,11.61
2023-10-02T03:49:05.671Z,11.58
2023-10-02T03:51:42.245Z,11.58
2023-10-02T03:54:22.029Z,11.57
2023-10-02T03:56:56.620Z,11.56
2023-10-02T03:59:33.337Z,11.54
2023-10-02T04:02:21.737Z,11.49
2023-10-02T04:04:53.590Z,11.53
2023-10-02T04:07:26.246Z,11.53
2023-10-02T04:09:57.992Z,11.52
2023-10-02T04:12:30.147Z,11.52
2023-10-02T04:15:06.790Z,11.53
2023-10-02T04:17:38.951Z,11.52
2023-10-02T04:20:28.102Z,11.54
2023-10-02T04:23:20.368Z,11.55
2023-10-02T04:25:53.219Z,11.56
2023-10-02T04:28:29.233Z,11.50
2023-10-02T04:31:07.527Z,11.46
2023-10-02T04:33:40.159Z,11.48
2023-10-02T04:36:14.531Z,11.46
2023-10-02T04:38:56.744Z,11.42
2023-10-02T04:41:28.929Z,11.42
2023-10-02T04:44:00.995Z,11.41
2023-10-02T04:46:35.423Z,11.42
2023-10-02T04:49:09.188Z,11.42
2023-10-02T04:51:47.869Z,11.39
2023-10-02T04:54:19.711Z,11.40
2023-10-02T04:57:09.815Z,11.39
2023-10-02T04:59:56.415Z,11.36
2023-10-02T05:02:28.154Z,11.35
2023-10-02T05:04:59.914Z,11.32
2023-10-02T05:07:31.720Z,11.31
2023-10-02T05:10:08.008Z,11.32
2023-10-02T05:12:45.812Z,11.29
2023-10-02T05:15:22.315Z,11.25
2023-10-02T05:17:56.982Z,11.26
2023-10-02T05:20:39.636Z,11.20
2023-10-02T05:23:12.203Z,11.17
2023-10-02T05:25:44.749Z,11.16
2023-10-02T05:28:16.755Z,11.14
2023-10-02T05:30:49.492Z,11.15
2023-10-02T05:33:38.042Z,11.17
2023-10-02T05:36:12.115Z,11.18
2023-10-02T05:39:03.859Z,11.19
2023-10-02T05:41:46.287Z,11.19
2023-10-02T05:44:24.741Z,11.21
2023-10-02T05:47:06.789Z,11.23
2023-10-02T05:49:48.814Z,11.25
2023-10-02T05:52:25.463Z,11.22
2023-10-02T05:54:57.723Z,11.22
2023-10-02T05:57:33.522Z,11.22
2023-10-02T06:00:18.079Z,11.22
2023-10-02T06:03:02.630Z,11.16
2023-10-02T06:05:35.069Z,11.16
2023-10-02T06:08:17.590Z,11.20
2023-10-02T06:11:10.070Z,11.22
2023-10-02T06:13:42.053Z,11.24
2023-10-02T06:16:15.899Z,11.25
2023-10-02T06:18:47.942Z,11.25
2023-10-02T06:21:20.483Z,11.26
2023-10-02T06:23:53.500Z,11.29
2023-10-02T06:26:31.063Z,11.34
2023-10-02T06:29:24.068Z,11.36
2023-10-02T06:32:04.455Z,11.37
2023-10-02T06:34:40.759Z,11.39
2023-10-02T06:37:14.339Z,11.45
2023-10-02T06:39:48.635Z,11.48
2023-10-02T06:42:20.658Z,11.49
2023-10-02T06:44:55.477Z,11.50
2023-10-02T06:47:30.728Z,11.51
2023-10-02T06:50:23.034Z,11.53
2023-10-02T06:52:56.020Z,11.54
2023-10-02T06:55:28.133Z,11.56
2023-10-02T06:58:00.064Z,11.58
2023-10-02T07:00:51.027Z,11.63
2023-10-02T07:03:22.865Z,11.69
2023-10-02T07:05:54.983Z,11.71
2023-10-02T07:08:31.969Z,11.72
2023-10-02T07:11:13.024Z,11.71
2023-10-02T07:14:05.398Z,11.77
2023-10-02T07:16:38.265Z,11.84
2023-10-02T07:19:10.660Z,11.91
2023-10-02T07:21:42.493Z,11.96
2023-10-02T07:24:28.916Z,11.99
2023-10-02T07:27:00.905Z,12.02
2023-10-02T07:29:41.890Z,12.04
2023-10-02T07:32:14.904Z,12.05
2023-10-02T07:34:48.160Z,12.10
2023-10-02T07:37:23.336Z,12.18
2023-10-02T07:40:00.183Z,12.23
2023-10-02T07:42:33.779Z,12.26
2023-10-02T07:45:25.986Z,12.31
2023-10-02T07:48:14.498Z,12.35
2023-10-02T07:50:47.723Z,12.41
2023-10-02T07:53:19.584Z,12.46
2023-10-02T07:55:49.998Z,12.49
2023-10-02T07:58:21.923Z,12.53
2023-10-02T08:00:53.974Z,12.59
2023-10-02T08:03:33.284Z,12.63
2023-10-02T08:06:23.573Z,12.65
2023-10-02T08:09:11.365Z,12.71
2023-10-02T08:11:46.604Z,12.75
2023-10-02T08:14:36.382Z,12.81
2023-10-02T08:17:19.855Z,12.89
2023-10-02T08:19:58.577Z,12.95
2023-10-02T08:22:37.781Z,13.00
2023-10-02T08:25:15.103Z,13.05
2023-10-02T08:27:56.845Z,13.09
2023-10-02T08:30:33.057Z,13.18
2023-10-02T08:33:12.417Z,13.23
2023-10-02T08:35:56.533Z,13.30
2023-10-02T08:38:31.618Z,13.35
2023-10-02T08:41:09.698Z,13.42
2023-10-02T08:43:45.363Z,13.52
2023-10-02T08:46:23.839Z,13.60
2023-10-02T08:48:57.354Z,13.66
2023-10-02T08:51:37.532Z,13.73
2023-10-02T08:54:10.242Z,13.79
2023-10-02T08:56:45.494Z,13.85
2023-10-02T08:59:20.207Z,13.91
2023-10-02T09:01:53.886Z,13.93
2023-10-02T09:04:33.913Z,14.02
2023-10-02T09:07:22.335Z,14.15
2023-10-02T09:13:19.522Z,14.33
2023-10-02T09:15:55.340Z,14.35
2023-10-02T09:18:36.903Z,14.37
2023-10-02T09:21:17.182Z,14.43
2023-10-02T09:24:02.410Z,14.48
2023-10-02T09:26:44.461Z,14.56
2023-10-02T09:29:17.760Z,14.63
2023-10-02T09:31:51.360Z,14.69
2023-10-02T09:34:43.821Z,14.76
2023-10-02T09:37:34.927Z,14.86
2023-10-02T09:40:20.405Z,14.97
2023-10-02T09:43:02.237Z,15.02
2023-10-02T09:45:38.904Z,15.15
2023-10-02T09:48:30.995Z,15.30
2023-10-02T09:51:08.699Z,15.43
2023-10-02T09:54:03.894Z,15.53
2023-10-02T09:56:53.377Z,15.63
2023-10-02T09:59:25.720Z,15.72
2023-10-02T10:02:37.383Z,15.79
2023-10-02T10:05:29.174Z,15.89
2023-10-02T10:08:33.568Z,15.97
2023-10-02T10:11:15.464Z,16.05
2023-10-02T10:13:52.581Z,16.15
2023-10-02T10:16:46.375Z,16.23
2023-10-02T10:19:34.438Z,16.32
2023-10-02T10:22:11.969Z,16.41
2023-10-02T10:24:57.990Z,16.47
2023-10-02T10:27:59.874Z,16.57
2023-10-02T10:30:44.594Z,16.70
2023-10-02T10:33:37.508Z,16.76
2023-10-02T10:36:39.494Z,16.85
2023-10-02T10:39:46.608Z,16.95
2023-10-02T10:42:25.406Z,17.04
2023-10-02T10:45:02.811Z,17.14
2023-10-02T10:47:44.264Z,17.22
2023-10-02T10:50:31.704Z,17.32
2023-10-02T10:53:18.852Z,17.42
2023-10-02T10:55:56.750Z,17.49
2023-10-02T10:58:35.905Z,17.58
2023-10-02T11:01:15.507Z,17.66
2023-10-02T11:03:55.688Z,17.75
2023-10-02T11:06:27.940Z,17.87
2023-10-02T11:09:17.618Z,17.91
2023-10-02T11:11:53.516Z,17.95
2023-10-02T11:14:38.020Z,17.99
2023-10-02T11:17:14.091Z,18.05
2023-10-02T11:19:52.987Z,18.11
2023-10-02T11:22:26.930Z,18.18
2023-10-02T11:25:23.791Z,18.25
2023-10-02T11:28:01.088Z,18.28
2023-10-02T11:30:33.575Z,18.38
2023-10-02T11:33:06.752Z,18.43
2023-10-02T11:35:42.834Z,18.51
2023-10-02T11:38:19.524Z,18.55
2023-10-02T11:40:53.676Z,18.60
2023-10-02T11:43:25.566Z,18.63
2023-10-02T11:45:57.390Z,18.67
2023-10-02T11:48:29.174Z,18.73
2023-10-02T11:51:01.137Z,18.77
2023-10-02T11:53:33.394Z,18.85
2023-10-02T11:56:05.253Z,18.94
2023-10-02T11:58:37.616Z,18.97
2023-10-02T12:01:09.498Z,19.00
2023-10-02T12:03:41.514Z,19.01
2023-10-02T12:06:20.587Z,19.11
2023-10-02T12:08:56.125Z,19.15
2023-10-02T12:11:29.790Z,19.18
2023-10-02T12:14:04.737Z,19.19
2023-10-02T12:16:36.720Z,19.18
2023-10-02T12:19:13.365Z,19.25
2023-10-02T12:21:57.944Z,19.29
2023-10-02T12:24:38.283Z,19.33
2023-10-02T12:27:13.432Z,19.40
2023-10-02T12:29:45.241Z,19.41
2023-10-02T12:32:17.668Z,19.42
2023-10-02T12:34:49.563Z,19.46
2023-10-02T12:37:23.230Z,19.59
2023-10-02T12:39:57.363Z,19.65
2023-10-02T12:42:30.570Z,19.69
2023-10-02T12:45:02.779Z,19.70
2023-10-02T12:47:38.611Z,19.71
2023-10-02T12:50:13.148Z,19.82
2023-10-02T12:52:45.238Z,20.06
2023-10-02T12:55:18.475Z,20.09
2023-10-02T12:57:50.386Z,20.13
2023-10-02T13:00:22.728Z,20.14
2023-10-02T13:02:54.698Z,20.15
2023-10-02T13:05:28.141Z,20.17
2023-10-02T13:08:00.033Z,20.17
2023-10-02T13:10:32.687Z,20.19
2023-10-02T13:13:06.100Z,20.19
2023-10-02T13:15:37.914Z,20.20
2023-10-02T13:18:13.526Z,20.23
2023-10-02T13:20:45.601Z,20.36
2023-10-02T13:23:18.086Z,20.39
2023-10-02T13:25:49.975Z,20.40
2023-10-02T13:28:23.698Z,20.39
2023-10-02T13:30:55.523Z,20.41
2023-10-02T13:33:27.469Z,20.44
2023-10-02T13:36:05.042Z,20.40
2023-10-02T13:38:37.182Z,20.38
2023-10-02T13:41:12.917Z,20.39
2023-10-02T13:43:46.301Z,20.39
2023-10-02T13:46:21.622Z,20.40
2023-10-02T13:48:55.114Z,20.44
2023-10-02T13:51:28.713Z,20.52
2023-10-02T13:54:01.007Z,20.50
2023-10-02T13:56:37.818Z,20.53
2023-10-02T13:59:09.967Z,20.56
2023-10-02T14:01:41.917Z,20.57
2023-10-02T14:04:13.958Z,20.60
2023-10-02T14:06:48.421Z,20.59
2023-10-02T14:09:22.043Z,20.61
2023-10-02T14:11:54.117Z,20.77
2023-10-02T14:14:26.970Z,20.97
2023-10-02T14:16:59.603Z,20.97
2023-10-02T14:19:39.334Z,20.92
2023-10-02T14:22:22.209Z,20.87
2023-10-02T14:24:54.320Z,20.84
2023-10-02T14:27:26.329Z,20.80
2023-10-02T14:29:59.535Z,20.77
2023-10-02T14:32:31.902Z,20.72
2023-10-02T14:35:04.775Z,20.70
2023-10-02T14:37:37.464Z,20.71
2023-10-02T14:40:11.757Z,20.70
2023-10-02T14:42:43.662Z,20.73
2023-10-02T14:45:16.272Z,20.76
2023-10-02T14:47:48.470Z,20.73
2023-10-02T14:50:20.839Z,20.72
2023-10-02T14:52:54.475Z,20.69
2023-10-02T14:55:32.661Z,20.73
2023-10-02T14:58:34.413Z,20.76
2023-10-02T15:01:21.105Z,20.80
2023-10-02T15:03:56.883Z,20.78
2023-10-02T15:06:30.120Z,20.77
2023-10-02T15:09:18.651Z,20.75
2023-10-02T15:11:54.491Z,20.76
2023-10-02T15:14:29.633Z,20.76
2023-10-02T15:17:28.090Z,20.78
2023-10-02T15:20:02.245Z,20.79
2023-10-02T15:22:36.314Z,20.79
2023-10-02T15:25:09.545Z,20.77
2023-10-02T15:27:43.014Z,20.77
2023-10-02T15:30:20.522Z,20.75
2023-10-02T15:32:55.296Z,20.73
2023-10-02T15:35:28.725Z,20.72
2023-10-02T15:38:04.314Z,20.70
2023-10-02T15:40:48.306Z,20.68
2023-10-02T15:43:30.933Z,20.68
2023-10-02T15:46:05.868Z,20.68
2023-10-02T15:48:37.838Z,20.62
2023-10-02T15:51:09.814Z,20.57
2023-10-02T15:53:47.065Z,20.53
2023-10-02T15:56:21.331Z,20.46
2023-10-02T15:58:55.862Z,20.44
2023-10-02T16:01:29.157Z,20.39
2023-10-02T16:04:01.289Z,20.33
2023-10-02T16:06:33.359Z,20.28
2023-10-02T16:09:05.308Z,20.22
2023-10-02T16:11:37.482Z,20.21
2023-10-02T16:14:09.461Z,20.18
2023-10-02T16:16:42.365Z,20.17
2023-10-02T16:19:15.052Z,20.17
2023-10-02T16:21:47.260Z,20.12
2023-10-02T16:24:33.706Z,20.08
2023-10-02T16:27:07.590Z,20.02
2023-10-02T16:29:39.673Z,19.96
2023-10-02T16:32:11.800Z,19.91
2023-10-02T16:34:44.980Z,19.86
2023-10-02T16:37:26.114Z,19.82
2023-10-02T16:43:24.869Z,19.71
2023-10-02T16:46:01.287Z,19.63
2023-10-02T16:48:45.827Z,19.56
2023-10-02T16:51:26.034Z,19.51
2023-10-02T16:54:19.242Z,19.47
2023-10-02T16:58:03.324Z,19.38
2023-10-02T17:01:26.373Z,19.33
2023-10-02T17:04:29.993Z,19.24
2023-10-02T17:07:15.531Z,19.18
2023-10-02T17:12:36.200Z,19.12
2023-10-02T17:18:19.047Z,18.87
2023-10-02T17:20:53.219Z,18.78
2023-10-02T17:23:32.170Z,18.68
2023-10-02T17:55:45.736Z,17.93
2023-10-02T17:58:18.557Z,17.88
2023-10-02T18:00:50.512Z,17.83
2023-10-02T18:03:22.530Z,17.78
2023-10-02T18:05:54.911Z,17.71
2023-10-02T18:08:27.152Z,17.64
2023-10-02T18:10:59.294Z,17.59
2023-10-02T18:13:31.160Z,17.57
2023-10-02T18:16:03.723Z,17.55
2023-10-02T18:18:35.874Z,17.49
2023-10-02T18:21:07.766Z,17.42
2023-10-02T18:23:40.441Z,17.36
2023-10-02T18:26:12.460Z,17.30
2023-10-02T18:28:45.608Z,17.26
2023-10-02T18:31:17.447Z,17.21
2023-10-02T18:33:49.244Z,17.18
2023-10-02T18:36:22.268Z,17.13
2023-10-02T18:38:54.159Z,17.07
2023-10-02T18:41:27.635Z,17.02
2023-10-02T18:44:03.268Z,16.96
2023-10-02T18:46:35.129Z,16.90
2023-10-02T18:49:10.266Z,16.85
2023-10-02T18:51:43.467Z,16.81
2023-10-02T18:54:15.578Z,16.76
2023-10-02T18:56:47.996Z,16.72
2023-10-02T18:59:20.040Z,16.67
2023-10-02T19:01:52.041Z,16.64
2023-10-02T19:04:24.621Z,16.60
2023-10-02T19:06:57.320Z,16.55
2023-10-02T19:09:30.511Z,16.49
2023-10-02T19:12:02.253Z,16.43
2023-10-02T19:14:34.996Z,16.40
2023-10-02T19:17:07.058Z,16.37
2023-10-02T19:19:38.800Z,16.33
2023-10-02T19:22:10.772Z,16.30
2023-10-02T19:24:43.009Z,16.25
2023-10-02T19:27:14.841Z,16.23
2023-10-02T19:29:46.874Z,16.21
2023-10-02T19:32:19.149Z,16.18
2023-10-02T19:34:51.631Z,16.15
2023-10-02T19:37:24.517Z,16.12
2023-10-02T19:39:56.374Z,16.07
2023-10-02T19:42:28.564Z,16.03
2023-10-02T19:45:01.250Z,15.96
2023-10-02T19:47:33.628Z,15.96
2023-10-02T19:50:05.898Z,15.95
2023-10-02T19:52:38.743Z,15.92
2023-10-02T19:55:12.407Z,15.89
2023-10-02T19:57:44.253Z,15.86
2023-10-02T20:00:19.618Z,15.83
2023-10-02T20:02:52.665Z,15.81
2023-10-02T20:05:28.338Z,15.79
2023-10-02T20:08:02.865Z,15.74
2023-10-02T20:10:34.816Z,15.71
2023-10-02T20:13:11.861Z,15.68
2023-10-02T20:15:43.792Z,15.66
2023-10-02T20:18:16.185Z,15.64
2023-10-02T20:20:50.115Z,15.60
2023-10-02T20:25:54.036Z,15.54
2023-10-02T20:28:25.967Z,15.53
2023-10-02T20:30:58.745Z,15.51
2023-10-02T20:33:33.220Z,15.46
2023-10-02T20:36:08.711Z,15.40
2023-10-02T20:38:40.803Z,15.36
2023-10-02T20:41:13.090Z,15.33
2023-10-02T20:43:44.976Z,15.32
2023-10-02T20:46:17.579Z,15.30
2023-10-02T20:48:49.456Z,15.27
2023-10-02T20:51:21.371Z,15.22
2023-10-02T20:53:53.869Z,15.17
2023-10-02T20:56:25.664Z,15.12
2023-10-02T20:58:57.954Z,15.09
2023-10-02T21:01:32.759Z,15.06
2023-10-02T21:04:04.714Z,15.01
2023-10-02T21:06:37.226Z,14.96
2023-10-02T21:09:17.028Z,14.92
2023-10-02T21:11:49.188Z,14.90
2023-10-02T21:14:24.019Z,14.87
2023-10-02T21:16:56.149Z,14.83
2023-10-02T21:19:28.685Z,14.81
2023-10-02T21:22:00.573Z,14.78
2023-10-02T21:24:36.574Z,14.76
2023-10-02T21:27:08.373Z,14.72
2023-10-02T21:29:40.715Z,14.69
2023-10-02T21:32:12.751Z,14.68
2023-10-02T21:34:44.517Z,14.65
2023-10-02T21:37:14.769Z,14.62
2023-10-02T21:39:46.580Z,14.60
2023-10-02T21:42:18.387Z,14.57
2023-10-02T21:44:50.500Z,14.56
2023-10-02T21:47:22.295Z,14.56
2023-10-02T21:49:54.152Z,14.55
2023-10-02T21:52:26.143Z,14.52
2023-10-02T21:55:05.031Z,14.49
2023-10-02T21:57:37.171Z,14.48
2023-10-02T22:00:31.031Z,14.46
2023-10-02T22:03:05.188Z,14.41
2023-10-02T22:05:37.878Z,14.40
2023-10-02T22:08:10.287Z,14.37
2023-10-02T22:10:43.997Z,14.34
2023-10-02T22:13:17.589Z,14.33
2023-10-02T22:15:51.086Z,14.29
2023-10-02T22:18:24.145Z,14.27
2023-10-02T22:21:02.399Z,14.25
2023-10-02T22:23:35.136Z,14.21
2023-10-02T22:26:07.521Z,14.18
2023-10-02T22:28:39.268Z,14.10
2023-10-02T22:31:14.983Z,14.05
2023-10-02T22:33:48.558Z,14.03
2023-10-02T22:36:21.092Z,14.03
2023-10-02T22:38:53.003Z,13.97
2023-10-02T22:41:23.302Z,13.93
2023-10-02T22:43:55.085Z,13.89
2023-10-02T22:46:25.359Z,13.86
2023-10-02T22:48:57.191Z,13.86
2023-10-02T22:51:32.816Z,13.83
2023-10-02T22:54:07.081Z,13.80
2023-10-02T22:56:39.258Z,13.79
2023-10-02T22:59:11.247Z,13.76
2023-10-02T23:01:42.972Z,13.74
2023-10-02T23:04:14.119Z,13.74
2023-10-02T23:06:47.436Z,13.72
2023-10-02T23:09:20.052Z,13.68
2023-10-02T23:11:53.415Z,13.67
2023-10-02T23:14:27.024Z,13.66
2023-10-02T23:16:57.965Z,13.66
2023-10-02T23:19:30.167Z,13.67
2023-10-02T23:22:02.511Z,13.66
2023-10-02T23:24:38.758Z,13.64
2023-10-02T23:27:10.605Z,13.62
2023-10-02T23:29:43.734Z,13.59
2023-10-02T23:32:15.536Z,13.54
2023-10-02T23:34:46.886Z,13.48
2023-10-02T23:37:20.021Z,13.48
2023-10-02T23:39:51.752Z,13.47
2023-10-02T23:42:25.473Z,13.47
2023-10-02T23:44:57.515Z,13.47
2023-10-02T23:47:29.828Z,13.45
2023-10-02T23:50:02.662Z,13.43
2023-10-02T23:52:36.106Z,13.36
2023-10-02T23:55:08.731Z,13.34
2023-10-02T23:57:41.564Z,13.30
